sensor_id;sensor_type;location;lat;lon;timestamp;pressure;altitude;pressure_sealevel;temperature;humidity
61961;BME280;47923;42.506;24.192;2023-07-31T00:02:23;95042.19;;;22.60;59.34
61961;BME280;47923;42.506;24.192;2023-07-31T00:04:51;95080.31;;;22.83;58.24
61961;BME280;47923;42.506;24.192;2023-07-31T00:07:22;94767.88;;;20.87;57.62
61961;BME280;47923;42.506;24.192;2023-07-31T00:10:10;94971.09;;;22.24;57.24
61961;BME280;47923;42.506;24.192;2023-07-31T00:12:50;95072.03;;;22.96;56.22
61961;BME280;47923;42.506;24.192;2023-07-31T00:15:25;95064.41;;;23.00;56.95
61961;BME280;47923;42.506;24.192;2023-07-31T00:17:59;94872.88;;;21.77;58.07
61961;BME280;47923;42.506;24.192;2023-07-31T00:20:30;95072.34;;;23.20;57.41
61961;BME280;47923;42.506;24.192;2023-07-31T00:23:14;94822.44;;;21.58;57.30
61961;BME280;47923;42.506;24.192;2023-07-31T00:25:45;95067.59;;;23.21;57.48
61961;BME280;47923;42.506;24.192;2023-07-31T00:28:16;95015.41;;;22.95;58.50
61961;BME280;47923;42.506;24.192;2023-07-31T00:30:47;95071.31;;;23.27;61.33
61961;BME280;47923;42.506;24.192;2023-07-31T00:33:19;94914.66;;;22.19;61.49
61961;BME280;47923;42.506;24.192;2023-07-31T00:35:53;95073.25;;;23.17;64.30
61961;BME280;47923;42.506;24.192;2023-07-31T00:38:21;95032.97;;;22.76;64.28
61961;BME280;47923;42.506;24.192;2023-07-31T00:40:51;95082.34;;;23.05;66.77
61961;BME280;47923;42.506;24.192;2023-07-31T00:43:22;95084.72;;;22.94;68.46
61961;BME280;47923;42.506;24.192;2023-07-31T00:45:53;95105.22;;;22.80;70.47
61961;BME280;47923;42.506;24.192;2023-07-31T00:48:22;95097.31;;;22.69;70.31
61961;BME280;47923;42.506;24.192;2023-07-31T00:50:57;94998.63;;;21.98;71.67
61961;BME280;47923;42.506;24.192;2023-07-31T00:53:27;95093.41;;;22.57;73.65
61961;BME280;47923;42.506;24.192;2023-07-31T00:55:53;95000.31;;;21.70;74.47
61961;BME280;47923;42.506;24.192;2023-07-31T00:58:21;95096.88;;;22.23;73.74
61961;BME280;47923;42.506;24.192;2023-07-31T01:00:49;94972.09;;;21.32;76.07
61961;BME280;47923;42.506;24.192;2023-07-31T01:03:18;95028.47;;;21.49;77.75
61961;BME280;47923;42.506;24.192;2023-07-31T01:06:17;95111.06;;;21.84;78.14
61961;BME280;47923;42.506;24.192;2023-07-31T01:09:05;95105.00;;;21.76;77.69
61961;BME280;47923;42.506;24.192;2023-07-31T01:11:38;94955.25;;;20.62;78.72
61961;BME280;47923;42.506;24.192;2023-07-31T01:14:15;95103.91;;;21.61;80.67
61961;BME280;47923;42.506;24.192;2023-07-31T01:16:43;95084.59;;;21.35;79.49
61961;BME280;47923;42.506;24.192;2023-07-31T01:19:14;95081.44;;;21.49;79.71
61961;BME280;47923;42.506;24.192;2023-07-31T01:24:57;95077.41;;;21.54;79.95
61961;BME280;47923;42.506;24.192;2023-07-31T01:27:35;95070.00;;;21.51;79.04
61961;BME280;47923;42.506;24.192;2023-07-31T01:30:24;95052.97;;;21.31;78.76
61961;BME280;47923;42.506;24.192;2023-07-31T01:32:54;95070.22;;;21.44;80.26
61961;BME280;47923;42.506;24.192;2023-07-31T01:35:27;95075.84;;;21.40;79.74
61961;BME280;47923;42.506;24.192;2023-07-31T01:38:34;94967.81;;;20.76;78.18
61961;BME280;47923;42.506;24.192;2023-07-31T01:41:05;95063.75;;;21.38;76.81
61961;BME280;47923;42.506;24.192;2023-07-31T01:43:36;95058.03;;;21.32;79.45
61961;BME280;47923;42.506;24.192;2023-07-31T01:46:04;95010.22;;;20.88;79.56
61961;BME280;47923;42.506;24.192;2023-07-31T01:48:32;95048.59;;;21.04;80.54
61961;BME280;47923;42.506;24.192;2023-07-31T01:51:04;94824.03;;;19.61;80.49
61961;BME280;47923;42.506;24.192;2023-07-31T01:53:33;94852.63;;;19.89;81.61
61961;BME280;47923;42.506;24.192;2023-07-31T01:56:04;94876.59;;;20.01;82.38
61961;BME280;47923;42.506;24.192;2023-07-31T01:58:36;95020.28;;;20.78;84.22
61961;BME280;47923;42.506;24.192;2023-07-31T02:04:00;94991.38;;;20.61;83.25
61961;BME280;47923;42.506;24.192;2023-07-31T02:06:47;95026.56;;;20.79;82.51
61961;BME280;47923;42.506;24.192;2023-07-31T02:09:15;95040.63;;;20.81;84.26
61961;BME280;47923;42.506;24.192;2023-07-31T02:11:44;95026.47;;;20.82;81.68
61961;BME280;47923;42.506;24.192;2023-07-31T02:14:16;95031.88;;;20.86;82.08
61961;BME280;47923;42.506;24.192;2023-07-31T02:16:44;95035.25;;;20.90;84.98
61961;BME280;47923;42.506;24.192;2023-07-31T02:19:13;94986.59;;;20.49;86.13
61961;BME280;47923;42.506;24.192;2023-07-31T02:21:38;95028.75;;;20.84;86.72
61961;BME280;47923;42.506;24.192;2023-07-31T02:24:18;94965.59;;;20.42;86.71
61961;BME280;47923;42.506;24.192;2023-07-31T02:26:54;95041.47;;;20.78;87.36
61961;BME280;47923;42.506;24.192;2023-07-31T02:29:32;95045.44;;;20.77;84.32
61961;BME280;47923;42.506;24.192;2023-07-31T02:32:17;95041.25;;;20.72;86.33
61961;BME280;47923;42.506;24.192;2023-07-31T02:35:07;95046.38;;;20.70;84.84
61961;BME280;47923;42.506;24.192;2023-07-31T02:37:53;95020.66;;;20.51;85.53
61961;BME280;47923;42.506;24.192;2023-07-31T02:40:30;95026.22;;;20.48;86.33
61961;BME280;47923;42.506;24.192;2023-07-31T02:43:19;95047.31;;;20.51;85.85
61961;BME280;47923;42.506;24.192;2023-07-31T02:46:32;94986.69;;;20.00;86.43
61961;BME280;47923;42.506;24.192;2023-07-31T02:51:29;95067.63;;;20.04;87.05
61961;BME280;47923;42.506;24.192;2023-07-31T02:54:00;95075.00;;;20.24;88.50
61961;BME280;47923;42.506;24.192;2023-07-31T02:56:32;95008.38;;;19.78;88.64
61961;BME280;47923;42.506;24.192;2023-07-31T02:59:03;95074.69;;;20.05;89.18
61961;BME280;47923;42.506;24.192;2023-07-31T03:01:46;95037.66;;;19.81;89.41
61961;BME280;47923;42.506;24.192;2023-07-31T03:04:14;95015.28;;;19.66;89.74
61961;BME280;47923;42.506;24.192;2023-07-31T03:06:53;95072.50;;;19.97;89.55
61961;BME280;47923;42.506;24.192;2023-07-31T03:09:21;95082.38;;;19.94;92.52
61961;BME280;47923;42.506;24.192;2023-07-31T03:11:57;95058.91;;;19.77;92.63
61961;BME280;47923;42.506;24.192;2023-07-31T03:14:26;95089.41;;;19.95;89.63
61961;BME280;47923;42.506;24.192;2023-07-31T03:16:57;95090.53;;;19.98;90.44
61961;BME280;47923;42.506;24.192;2023-07-31T03:19:53;95043.47;;;19.67;91.30
61961;BME280;47923;42.506;24.192;2023-07-31T03:22:27;95098.22;;;20.03;92.88
61961;BME280;47923;42.506;24.192;2023-07-31T03:25:06;95056.72;;;19.68;93.71
61961;BME280;47923;42.506;24.192;2023-07-31T03:27:52;95106.28;;;19.94;92.78
61961;BME280;47923;42.506;24.192;2023-07-31T03:30:20;95103.59;;;19.90;91.15
61961;BME280;47923;42.506;24.192;2023-07-31T03:32:48;95097.44;;;19.86;86.91
61961;BME280;47923;42.506;24.192;2023-07-31T03:35:17;95105.34;;;19.84;86.79
61961;BME280;47923;42.506;24.192;2023-07-31T03:38:17;95097.09;;;19.84;88.86
61961;BME280;47923;42.506;24.192;2023-07-31T03:40:48;95013.06;;;19.25;88.08
61961;BME280;47923;42.506;24.192;2023-07-31T03:43:28;95098.38;;;19.79;87.65
61961;BME280;47923;42.506;24.192;2023-07-31T03:46:00;95073.59;;;19.67;88.05
61961;BME280;47923;42.506;24.192;2023-07-31T03:48:46;95091.88;;;19.90;87.68
61961;BME280;47923;42.506;24.192;2023-07-31T03:51:14;94888.88;;;18.63;86.75
61961;BME280;47923;42.506;24.192;2023-07-31T03:54:06;94879.13;;;18.62;85.99
61961;BME280;47923;42.506;24.192;2023-07-31T03:56:44;94902.44;;;18.86;85.76
61961;BME280;47923;42.506;24.192;2023-07-31T04:00:06;94754.03;;;17.93;85.51
61961;BME280;47923;42.506;24.192;2023-07-31T04:02:33;95093.00;;;20.25;84.06
61961;BME280;47923;42.506;24.192;2023-07-31T04:05:06;95083.31;;;20.36;82.59
61961;BME280;47923;42.506;24.192;2023-07-31T04:07:41;95091.38;;;20.43;84.45
61961;BME280;47923;42.506;24.192;2023-07-31T04:10:09;95090.19;;;20.28;86.57
61961;BME280;47923;42.506;24.192;2023-07-31T04:12:37;95091.38;;;20.11;87.30
61961;BME280;47923;42.506;24.192;2023-07-31T04:15:08;95037.91;;;19.86;87.21
61961;BME280;47923;42.506;24.192;2023-07-31T04:17:34;95089.56;;;20.37;86.56
61961;BME280;47923;42.506;24.192;2023-07-31T04:20:12;95097.44;;;20.67;85.08
61961;BME280;47923;42.506;24.192;2023-07-31T04:22:47;95035.72;;;20.59;85.50
61961;BME280;47923;42.506;24.192;2023-07-31T04:25:25;95041.06;;;20.92;82.80
61961;BME280;47923;42.506;24.192;2023-07-31T04:27:59;95021.59;;;22.17;76.80
61961;BME280;47923;42.506;24.192;2023-07-31T04:30:27;95075.00;;;24.26;68.61
61961;BME280;47923;42.506;24.192;2023-07-31T04:32:52;95094.72;;;25.47;64.45
61961;BME280;47923;42.506;24.192;2023-07-31T04:35:26;95077.16;;;24.31;66.79
61961;BME280;47923;42.506;24.192;2023-07-31T04:38:27;95094.13;;;23.27;69.75
61961;BME280;47923;42.506;24.192;2023-07-31T04:40:55;95089.44;;;22.58;70.99
61961;BME280;47923;42.506;24.192;2023-07-31T04:43:23;95060.56;;;21.77;72.38
61961;BME280;47923;42.506;24.192;2023-07-31T04:45:57;95106.22;;;21.75;74.21
61961;BME280;47923;42.506;24.192;2023-07-31T04:48:31;95051.81;;;21.15;75.56
61961;BME280;47923;42.506;24.192;2023-07-31T04:50:59;95086.72;;;21.31;75.86
61961;BME280;47923;42.506;24.192;2023-07-31T04:53:43;94823.16;;;19.64;75.23
61961;BME280;47923;42.506;24.192;2023-07-31T04:56:12;95120.41;;;21.86;74.29
61961;BME280;47923;42.506;24.192;2023-07-31T04:58:48;95113.94;;;22.18;73.02
61961;BME280;47923;42.506;24.192;2023-07-31T05:01:13;95106.09;;;22.29;71.95
61961;BME280;47923;42.506;24.192;2023-07-31T05:03:44;95096.16;;;22.57;70.51
61961;BME280;47923;42.506;24.192;2023-07-31T05:06:12;94686.31;;;19.86;70.53
61961;BME280;47923;42.506;24.192;2023-07-31T05:08:40;95092.53;;;22.95;70.58
61961;BME280;47923;42.506;24.192;2023-07-31T05:11:14;95103.44;;;24.05;67.17
61961;BME280;47923;42.506;24.192;2023-07-31T05:14:05;95027.19;;;25.21;58.83
61961;BME280;47923;42.506;24.192;2023-07-31T05:16:41;95018.81;;;26.86;53.83
61961;BME280;47923;42.506;24.192;2023-07-31T05:19:09;95001.06;;;30.13;43.84
61961;BME280;47923;42.506;24.192;2023-07-31T05:21:43;95094.28;;;30.61;41.80
61961;BME280;47923;42.506;24.192;2023-07-31T05:24:10;95002.00;;;30.47;41.10
61961;BME280;47923;42.506;24.192;2023-07-31T05:26:38;95101.84;;;30.12;42.85
61961;BME280;47923;42.506;24.192;2023-07-31T05:29:25;95071.78;;;28.51;45.84
61961;BME280;47923;42.506;24.192;2023-07-31T05:31:50;95119.13;;;27.53;49.48
61961;BME280;47923;42.506;24.192;2023-07-31T05:34:30;94997.56;;;27.22;49.11
61961;BME280;47923;42.506;24.192;2023-07-31T05:36:58;95102.38;;;30.16;42.99
61961;BME280;47923;42.506;24.192;2023-07-31T05:39:30;95014.19;;;32.22;37.46
61961;BME280;47923;42.506;24.192;2023-07-31T05:42:00;94980.28;;;33.17;35.13
61961;BME280;47923;42.506;24.192;2023-07-31T05:44:26;94938.78;;;34.98;31.05
61961;BME280;47923;42.506;24.192;2023-07-31T05:47:03;94995.13;;;36.28;29.58
61961;BME280;47923;42.506;24.192;2023-07-31T05:49:31;95038.75;;;37.14;28.26
61961;BME280;47923;42.506;24.192;2023-07-31T05:51:59;95096.97;;;37.46;28.15
61961;BME280;47923;42.506;24.192;2023-07-31T05:54:28;95073.94;;;37.21;28.54
61961;BME280;47923;42.506;24.192;2023-07-31T05:56:56;95069.66;;;38.09;26.93
61961;BME280;47923;42.506;24.192;2023-07-31T05:59:21;95089.09;;;38.62;26.70
61961;BME280;47923;42.506;24.192;2023-07-31T06:01:50;95043.03;;;38.67;25.96
61961;BME280;47923;42.506;24.192;2023-07-31T06:04:20;95080.47;;;39.24;25.83
61961;BME280;47923;42.506;24.192;2023-07-31T06:06:51;95090.91;;;39.96;25.07
61961;BME280;47923;42.506;24.192;2023-07-31T06:09:20;94950.44;;;39.91;24.18
61961;BME280;47923;42.506;24.192;2023-07-31T06:11:48;95005.34;;;39.29;24.21
61961;BME280;47923;42.506;24.192;2023-07-31T06:14:16;95077.94;;;39.57;25.08
61961;BME280;47923;42.506;24.192;2023-07-31T06:16:44;95091.34;;;40.54;24.18
61961;BME280;47923;42.506;24.192;2023-07-31T06:19:12;95088.66;;;40.10;24.56
61961;BME280;47923;42.506;24.192;2023-07-31T06:21:40;95063.56;;;39.91;24.73
61961;BME280;47923;42.506;24.192;2023-07-31T06:24:13;95104.34;;;40.03;24.88
61961;BME280;47923;42.506;24.192;2023-07-31T06:26:47;94808.97;;;38.17;24.88
61961;BME280;47923;42.506;24.192;2023-07-31T06:29:12;95110.38;;;40.15;24.16
61961;BME280;47923;42.506;24.192;2023-07-31T06:31:38;95039.44;;;39.98;23.78
61961;BME280;47923;42.506;24.192;2023-07-31T06:34:20;95087.38;;;40.19;23.93
61961;BME280;47923;42.506;24.192;2023-07-31T06:36:46;95101.88;;;40.30;23.54
61961;BME280;47923;42.506;24.192;2023-07-31T06:39:14;95108.63;;;41.19;22.84
61961;BME280;47923;42.506;24.192;2023-07-31T06:42:01;95097.03;;;41.88;22.58
61961;BME280;47923;42.506;24.192;2023-07-31T06:44:29;95093.84;;;42.09;21.70
61961;BME280;47923;42.506;24.192;2023-07-31T06:47:02;95083.72;;;41.73;21.98
61961;BME280;47923;42.506;24.192;2023-07-31T06:49:41;95107.56;;;41.55;22.39
61961;BME280;47923;42.506;24.192;2023-07-31T06:52:11;95083.59;;;41.48;22.20
61961;BME280;47923;42.506;24.192;2023-07-31T06:54:39;94987.69;;;40.81;22.15
61961;BME280;47923;42.506;24.192;2023-07-31T06:57:04;95096.34;;;42.05;21.21
61961;BME280;47923;42.506;24.192;2023-07-31T06:59:30;95092.28;;;42.48;21.08
61961;BME280;47923;42.506;24.192;2023-07-31T07:02:00;94959.31;;;40.26;22.53
61961;BME280;47923;42.506;24.192;2023-07-31T07:04:41;94971.72;;;40.46;22.00
61961;BME280;47923;42.506;24.192;2023-07-31T07:07:18;95062.69;;;41.76;21.95
61961;BME280;47923;42.506;24.192;2023-07-31T07:09:43;94970.03;;;40.43;21.69
61961;BME280;47923;42.506;24.192;2023-07-31T07:12:09;95067.47;;;41.66;21.78
61961;BME280;47923;42.506;24.192;2023-07-31T07:14:57;94935.50;;;40.44;21.65
61961;BME280;47923;42.506;24.192;2023-07-31T07:17:28;95101.00;;;41.45;22.05
61961;BME280;47923;42.506;24.192;2023-07-31T07:19:53;95097.34;;;41.59;22.09
61961;BME280;47923;42.506;24.192;2023-07-31T07:22:25;94885.13;;;40.50;21.42
61961;BME280;47923;42.506;24.192;2023-07-31T07:24:53;95090.31;;;43.18;20.13
61961;BME280;47923;42.506;24.192;2023-07-31T07:27:19;95032.81;;;42.75;19.38
61961;BME280;47923;42.506;24.192;2023-07-31T07:29:46;95038.63;;;42.17;20.62
61961;BME280;47923;42.506;24.192;2023-07-31T07:32:18;95084.97;;;43.22;19.54
61961;BME280;47923;42.506;24.192;2023-07-31T07:34:52;95114.22;;;43.15;19.86
61961;BME280;47923;42.506;24.192;2023-07-31T07:37:41;94979.56;;;42.41;19.90
61961;BME280;47923;42.506;24.192;2023-07-31T07:40:12;95109.03;;;43.21;19.98
61961;BME280;47923;42.506;24.192;2023-07-31T07:42:38;94973.91;;;41.66;20.80
61961;BME280;47923;42.506;24.192;2023-07-31T07:45:13;94909.69;;;40.32;21.60
61961;BME280;47923;42.506;24.192;2023-07-31T07:47:50;95112.47;;;40.76;22.64
61961;BME280;47923;42.506;24.192;2023-07-31T07:50:17;95087.41;;;38.87;24.16
61961;BME280;47923;42.506;24.192;2023-07-31T07:52:48;95114.34;;;38.88;24.54
61961;BME280;47923;42.506;24.192;2023-07-31T07:55:15;95031.78;;;39.47;23.55
61961;BME280;47923;42.506;24.192;2023-07-31T07:57:43;95090.94;;;40.80;22.41
61961;BME280;47923;42.506;24.192;2023-07-31T08:00:11;95123.63;;;42.00;20.93
61961;BME280;47923;42.506;24.192;2023-07-31T08:02:39;95120.25;;;42.27;20.52
61961;BME280;47923;42.506;24.192;2023-07-31T08:05:05;95133.41;;;40.80;22.55
61961;BME280;47923;42.506;24.192;2023-07-31T08:07:38;95123.00;;;41.06;21.87
61961;BME280;47923;42.506;24.192;2023-07-31T08:10:07;95023.63;;;38.63;23.66
61961;BME280;47923;42.506;24.192;2023-07-31T08:12:35;94960.47;;;36.39;25.81
61961;BME280;47923;42.506;24.192;2023-07-31T08:15:17;95031.34;;;37.38;25.95
61961;BME280;47923;42.506;24.192;2023-07-31T08:17:42;95121.50;;;39.18;23.83
61961;BME280;47923;42.506;24.192;2023-07-31T08:20:17;95109.28;;;40.49;21.90
61961;BME280;47923;42.506;24.192;2023-07-31T08:22:51;95060.53;;;40.81;21.59
61961;BME280;47923;42.506;24.192;2023-07-31T08:25:19;94925.78;;;40.78;20.48
61961;BME280;47923;42.506;24.192;2023-07-31T08:27:48;95060.16;;;41.48;20.25
61961;BME280;47923;42.506;24.192;2023-07-31T08:30:25;95056.69;;;42.89;19.47
61961;BME280;47923;42.506;24.192;2023-07-31T08:32:54;95099.03;;;42.78;19.60
61961;BME280;47923;42.506;24.192;2023-07-31T08:35:21;95047.53;;;42.39;19.68
61961;BME280;47923;42.506;24.192;2023-07-31T08:37:53;95097.66;;;42.36;19.79
61961;BME280;47923;42.506;24.192;2023-07-31T08:43:09;95055.44;;;38.92;22.76
61961;BME280;47923;42.506;24.192;2023-07-31T08:45:38;95107.09;;;38.72;23.54
61961;BME280;47923;42.506;24.192;2023-07-31T08:48:09;95002.25;;;37.08;24.92
61961;BME280;47923;42.506;24.192;2023-07-31T08:50:43;95095.94;;;36.83;25.80
61961;BME280;47923;42.506;24.192;2023-07-31T08:53:14;95085.22;;;37.34;24.74
61961;BME280;47923;42.506;24.192;2023-07-31T08:55:51;95106.50;;;37.56;25.70
61961;BME280;47923;42.506;24.192;2023-07-31T08:58:24;95103.16;;;36.51;26.92
61961;BME280;47923;42.506;24.192;2023-07-31T09:01:01;95016.16;;;34.20;29.00
61961;BME280;47923;42.506;24.192;2023-07-31T09:03:33;95115.75;;;35.05;28.79
61961;BME280;47923;42.506;24.192;2023-07-31T09:06:04;95104.16;;;37.07;25.43
61961;BME280;47923;42.506;24.192;2023-07-31T09:08:36;95101.13;;;37.79;24.57
61961;BME280;47923;42.506;24.192;2023-07-31T09:11:08;95104.81;;;37.26;24.15
61961;BME280;47923;42.506;24.192;2023-07-31T09:13:40;95103.22;;;37.65;24.23
61961;BME280;47923;42.506;24.192;2023-07-31T09:16:13;95085.75;;;37.80;23.64
61961;BME280;47923;42.506;24.192;2023-07-31T09:18:59;95110.03;;;36.96;25.16
61961;BME280;47923;42.506;24.192;2023-07-31T09:21:46;94946.25;;;35.27;25.63
61961;BME280;47923;42.506;24.192;2023-07-31T09:24:25;95069.97;;;37.03;24.27
61961;BME280;47923;42.506;24.192;2023-07-31T09:26:53;95084.44;;;37.68;24.22
61961;BME280;47923;42.506;24.192;2023-07-31T09:29:22;95090.31;;;38.46;23.33
61961;BME280;47923;42.506;24.192;2023-07-31T09:31:58;95088.22;;;37.36;23.57
61961;BME280;47923;42.506;24.192;2023-07-31T09:34:40;95093.25;;;37.03;24.21
61961;BME280;47923;42.506;24.192;2023-07-31T09:37:06;95092.97;;;35.84;25.93
61961;BME280;47923;42.506;24.192;2023-07-31T09:39:46;95091.25;;;35.06;26.32
61961;BME280;47923;42.506;24.192;2023-07-31T09:42:12;95090.53;;;34.21;27.77
61961;BME280;47923;42.506;24.192;2023-07-31T09:44:39;95112.06;;;33.71;29.08
61961;BME280;47923;42.506;24.192;2023-07-31T09:47:05;94985.28;;;32.02;30.16
61961;BME280;47923;42.506;24.192;2023-07-31T09:49:34;95104.91;;;32.43;30.14
61961;BME280;47923;42.506;24.192;2023-07-31T09:51:59;94984.41;;;32.52;29.17
61961;BME280;47923;42.506;24.192;2023-07-31T09:54:47;95043.75;;;33.44;28.72
61961;BME280;47923;42.506;24.192;2023-07-31T09:57:14;94879.50;;;33.52;27.08
61961;BME280;47923;42.506;24.192;2023-07-31T09:59:52;95061.06;;;36.01;26.03
61961;BME280;47923;42.506;24.192;2023-07-31T10:02:30;95005.38;;;37.86;22.50
61961;BME280;47923;42.506;24.192;2023-07-31T10:05:03;95026.88;;;38.67;22.37
61961;BME280;47923;42.506;24.192;2023-07-31T10:07:37;95088.97;;;37.50;23.68
61961;BME280;47923;42.506;24.192;2023-07-31T10:10:10;95088.03;;;36.81;24.71
61961;BME280;47923;42.506;24.192;2023-07-31T10:12:36;94971.13;;;35.55;25.14
61961;BME280;47923;42.506;24.192;2023-07-31T10:15:13;95103.84;;;36.25;24.62
61961;BME280;47923;42.506;24.192;2023-07-31T10:17:49;95092.47;;;36.18;25.07
61961;BME280;47923;42.506;24.192;2023-07-31T10:20:16;94993.69;;;34.93;25.77
61961;BME280;47923;42.506;24.192;2023-07-31T10:22:47;94901.59;;;34.11;25.38
61961;BME280;47923;42.506;24.192;2023-07-31T10:25:19;95097.03;;;34.34;25.80
61961;BME280;47923;42.506;24.192;2023-07-31T10:27:50;95086.44;;;33.92;26.46
61961;BME280;47923;42.506;24.192;2023-07-31T10:30:20;94984.97;;;33.44;26.02
61961;BME280;47923;42.506;24.192;2023-07-31T10:32:47;95084.28;;;32.46;29.29
61961;BME280;47923;42.506;24.192;2023-07-31T10:35:18;95042.16;;;31.99;30.35
61961;BME280;47923;42.506;24.192;2023-07-31T10:37:52;95061.47;;;32.20;29.69
61961;BME280;47923;42.506;24.192;2023-07-31T10:40:25;95078.47;;;32.44;29.84
61961;BME280;47923;42.506;24.192;2023-07-31T10:42:59;94692.84;;;29.77;29.63
61961;BME280;47923;42.506;24.192;2023-07-31T10:45:41;95077.38;;;32.69;28.51
61961;BME280;47923;42.506;24.192;2023-07-31T10:48:13;95071.50;;;32.79;27.31
61961;BME280;47923;42.506;24.192;2023-07-31T10:50:51;95071.75;;;32.86;27.75
61961;BME280;47923;42.506;24.192;2023-07-31T10:53:30;95066.06;;;33.09;27.31
61961;BME280;47923;42.506;24.192;2023-07-31T10:56:00;95072.00;;;33.41;27.63
61961;BME280;47923;42.506;24.192;2023-07-31T10:58:26;94843.84;;;31.99;26.78
61961;BME280;47923;42.506;24.192;2023-07-31T11:00:55;95029.34;;;33.65;26.84
61961;BME280;47923;42.506;24.192;2023-07-31T11:03:46;95026.78;;;33.67;26.54
61961;BME280;47923;42.506;24.192;2023-07-31T11:06:10;95050.56;;;34.45;25.81
61961;BME280;47923;42.506;24.192;2023-07-31T11:08:47;95029.47;;;34.38;25.27
61961;BME280;47923;42.506;24.192;2023-07-31T11:11:18;95048.31;;;34.68;24.64
61961;BME280;47923;42.506;24.192;2023-07-31T11:16:11;95049.81;;;34.44;25.22
61961;BME280;47923;42.506;24.192;2023-07-31T11:18:47;95045.13;;;34.28;25.58
61961;BME280;47923;42.506;24.192;2023-07-31T11:21:15;95049.16;;;33.72;25.78
61961;BME280;47923;42.506;24.192;2023-07-31T11:23:41;94880.44;;;31.96;27.06
61961;BME280;47923;42.506;24.192;2023-07-31T11:26:10;95018.28;;;33.01;26.98
61961;BME280;47923;42.506;24.192;2023-07-31T11:28:36;95021.41;;;32.81;27.27
61961;BME280;47923;42.506;24.192;2023-07-31T11:31:02;95002.25;;;33.02;26.94
61961;BME280;47923;42.506;24.192;2023-07-31T11:33:37;95034.53;;;33.08;26.53
61961;BME280;47923;42.506;24.192;2023-07-31T11:36:02;94950.28;;;32.70;26.10
61961;BME280;47923;42.506;24.192;2023-07-31T11:38:30;95033.88;;;33.38;26.53
61961;BME280;47923;42.506;24.192;2023-07-31T11:41:00;94978.63;;;32.97;26.34
61961;BME280;47923;42.506;24.192;2023-07-31T11:43:34;94987.41;;;32.65;26.17
61961;BME280;47923;42.506;24.192;2023-07-31T11:46:06;95042.78;;;32.72;25.84
61961;BME280;47923;42.506;24.192;2023-07-31T11:48:34;95027.59;;;32.62;26.39
61961;BME280;47923;42.506;24.192;2023-07-31T11:51:03;95014.81;;;32.78;26.16
61961;BME280;47923;42.506;24.192;2023-07-31T11:53:56;95022.88;;;32.98;26.48
61961;BME280;47923;42.506;24.192;2023-07-31T11:56:23;95010.50;;;32.77;26.30
61961;BME280;47923;42.506;24.192;2023-07-31T11:58:58;94808.72;;;31.40;26.66
61961;BME280;47923;42.506;24.192;2023-07-31T12:01:24;95014.81;;;32.72;26.86
61961;BME280;47923;42.506;24.192;2023-07-31T12:03:56;94984.50;;;32.07;27.37
61961;BME280;47923;42.506;24.192;2023-07-31T12:06:32;95012.41;;;32.30;26.51
61961;BME280;47923;42.506;24.192;2023-07-31T12:09:03;95014.38;;;32.57;25.82
61961;BME280;47923;42.506;24.192;2023-07-31T12:11:29;94983.84;;;32.65;26.31
61961;BME280;47923;42.506;24.192;2023-07-31T12:13:54;94990.41;;;32.73;25.73
61961;BME280;47923;42.506;24.192;2023-07-31T12:16:26;94995.47;;;32.86;25.63
61961;BME280;47923;42.506;24.192;2023-07-31T12:18:55;94936.25;;;32.07;24.96
61961;BME280;47923;42.506;24.192;2023-07-31T12:21:27;94971.50;;;32.27;25.39
61961;BME280;47923;42.506;24.192;2023-07-31T12:24:08;94892.91;;;31.78;25.46
61961;BME280;47923;42.506;24.192;2023-07-31T12:26:34;94996.31;;;32.64;24.98
61961;BME280;47923;42.506;24.192;2023-07-31T12:29:06;94935.59;;;32.53;25.03
61961;BME280;47923;42.506;24.192;2023-07-31T12:31:34;94983.72;;;33.34;24.70
61961;BME280;47923;42.506;24.192;2023-07-31T12:34:17;94982.16;;;33.44;24.60
61961;BME280;47923;42.506;24.192;2023-07-31T12:36:43;94912.22;;;32.56;25.07
61961;BME280;47923;42.506;24.192;2023-07-31T12:39:29;94981.50;;;32.75;25.70
61961;BME280;47923;42.506;24.192;2023-07-31T12:41:57;94966.88;;;32.46;25.53
61961;BME280;47923;42.506;24.192;2023-07-31T12:44:28;94979.91;;;32.15;24.86
61961;BME280;47923;42.506;24.192;2023-07-31T12:47:02;94975.88;;;32.00;24.95
61961;BME280;47923;42.506;24.192;2023-07-31T12:49:33;94974.13;;;31.69;25.33
61961;BME280;47923;42.506;24.192;2023-07-31T12:52:01;94847.78;;;30.84;25.29
61961;BME280;47923;42.506;24.192;2023-07-31T12:54:27;94958.66;;;31.56;26.14
61961;BME280;47923;42.506;24.192;2023-07-31T12:57:05;94946.97;;;31.63;26.14
61961;BME280;47923;42.506;24.192;2023-07-31T12:59:39;94956.63;;;31.62;26.05
61961;BME280;47923;42.506;24.192;2023-07-31T13:02:28;94952.31;;;31.67;26.48
61961;BME280;47923;42.506;24.192;2023-07-31T13:04:56;94943.94;;;31.61;26.80
61961;BME280;47923;42.506;24.192;2023-07-31T13:07:33;94942.66;;;31.57;26.98
61961;BME280;47923;42.506;24.192;2023-07-31T13:10:02;94944.44;;;31.60;27.45
61961;BME280;47923;42.506;24.192;2023-07-31T13:12:29;94938.88;;;31.54;26.69
61961;BME280;47923;42.506;24.192;2023-07-31T13:15:07;94828.78;;;30.88;26.24
61961;BME280;47923;42.506;24.192;2023-07-31T13:17:35;94908.44;;;31.34;26.86
61961;BME280;47923;42.506;24.192;2023-07-31T13:20:09;94950.03;;;31.43;27.26
61961;BME280;47923;42.506;24.192;2023-07-31T13:22:38;94954.84;;;31.48;27.36
61961;BME280;47923;42.506;24.192;2023-07-31T13:25:06;94944.44;;;31.43;27.16
61961;BME280;47923;42.506;24.192;2023-07-31T13:27:32;94948.00;;;31.83;27.35
61961;BME280;47923;42.506;24.192;2023-07-31T13:30:00;94947.72;;;31.70;27.00
61961;BME280;47923;42.506;24.192;2023-07-31T13:32:46;94952.06;;;31.59;27.74
61961;BME280;47923;42.506;24.192;2023-07-31T13:35:24;94767.69;;;30.57;27.15